Buckley, Washington
Current Conditions -  °F | °C
As of 5:58 PM on Saturday 20 Dec 2014 (Local Time) from KTCM Reporting Station
Light Rain Light Rain  
Wind Chill: 54°   Ceiling: 6500
Heat Index: 54°   Visibility: 10mi
Dew Point: 53°   Wind: 16mph
Humidity: 99%   Direction: 200°SSW
Pressure: 29.5"   Gusts: 29mph
Location:  47.16°N, 122.03°W
Report Text: KTCM 210158Z AUTO 20014G25KT 10SM -RA FEW013 SCT044 OVC065 12/12 A2950 RMK AO2 RAE33RAB37 SLP994 P0007 T01210119
Loading
Personal Weather Stations






























Interactive Weather Map New forecast layout! Learn more

10-Day Weather Forecast

Advertisements
Track Severe Weather on mobile